Sharon, North Dakota
Current Conditions -  °F | °C
As of 4:58 AM on Thursday 23 Oct 2014 (Local Time) from KRDR Reporting Station
Scattered Clouds Scattered Clouds  
Wind Chill: 46°   Ceiling: Unl
Heat Index: 49°   Visibility: 10mi
Dew Point: 49°   Wind: 8mph
Humidity: 98%   Direction: 220°SW
Pressure: 29.83"   Gusts: NA
Location:  47.6°N, 97.89°W
Report Text: KRDR 230958Z AUTO 22007KT 10SM SCT080 10/09 A2983 RMK AO2 SLP109 T00960093
Loading
Personal Weather Stations






























Interactive Weather Map
Tropical Storm Tracking
New forecast layout! Learn more

10-Day Weather Forecast

Advertisements
Track Severe Weather on mobile